Time;durP1;ratioP1;P1;durP2;ratioP2;P2;SDS_P1;SDS_P2;PMS_P1;PMS_P2;Temp;Humidity;BMP_temperature;BMP_pressure;BME280_temperature;BME280_humidity;BME280_pressure;Samples;Min_cycle;Max_cycle;Signal;HPM_P1;HPM_P2
2023/05/03 00:00:35;;;;;;;54.55;11.85;;;17.40;87.90;;;;;;4985854;28;20026;-55
2023/05/03 00:03:03;;;;;;;77.50;12.02;;;17.30;87.80;;;;;;4953570;28;20133;-54
2023/05/03 00:05:30;;;;;;;54.63;12.10;;;17.30;88.00;;;;;;4985851;28;20117;-54
2023/05/03 00:07:55;;;;;;;60.38;11.50;;;17.30;87.90;;;;;;4969947;28;20073;-55
2023/05/03 00:10:21;;;;;;;47.35;12.10;;;17.30;88.00;;;;;;4985682;28;20035;-54
2023/05/03 00:12:47;;;;;;;64.50;13.90;;;17.20;88.10;;;;;;4985429;28;20102;-54
2023/05/03 00:15:12;;;;;;;47.97;11.25;;;17.20;88.20;;;;;;4986749;28;20050;-55
2023/05/03 00:17:38;;;;;;;63.97;12.25;;;17.20;88.20;;;;;;4986782;28;20038;-54
2023/05/03 00:20:04;;;;;;;54.85;11.32;;;17.20;88.30;;;;;;4985557;28;20086;-54
2023/05/03 00:22:30;;;;;;;58.17;11.52;;;17.10;89.00;;;;;;4986465;28;20060;-55
2023/05/03 00:24:55;;;;;;;51.33;12.52;;;17.10;88.40;;;;;;4986914;28;20045;-54
2023/05/03 00:27:21;;;;;;;62.72;11.68;;;17.10;88.40;;;;;;5001493;28;20094;-54
2023/05/03 00:29:48;;;;;;;50.63;11.82;;;17.10;88.40;;;;;;4969142;28;20031;-55
2023/05/03 00:32:14;;;;;;;47.60;11.63;;;17.00;88.40;;;;;;4985508;28;20023;-55
2023/05/03 00:34:40;;;;;;;47.47;10.60;;;17.00;88.30;;;;;;4986534;28;20038;-55
2023/05/03 00:37:05;;;;;;;55.92;11.10;;;17.00;88.50;;;;;;4985071;28;20493;-55
2023/05/03 00:39:31;;;;;;;54.13;11.20;;;17.00;88.40;;;;;;4985169;28;20034;-55
2023/05/03 00:41:57;;;;;;;53.47;11.25;;;17.00;88.40;;;;;;4985279;28;20031;-54
2023/05/03 00:44:23;;;;;;;55.28;10.38;;;16.90;88.50;;;;;;4985482;28;20046;-55
2023/05/03 00:46:49;;;;;;;50.08;9.48;;;17.00;88.60;;;;;;4985307;28;20034;-55
2023/05/03 00:49:15;;;;;;;48.15;11.15;;;16.90;88.50;;;;;;4985023;28;20564;-55
2023/05/03 00:51:40;;;;;;;47.13;11.18;;;16.90;88.50;;;;;;4985156;28;20030;-55
2023/05/03 00:54:06;;;;;;;40.55;10.00;;;16.90;88.60;;;;;;4984944;28;20122;-55
2023/05/03 00:56:32;;;;;;;43.95;9.70;;;16.90;89.20;;;;;;4985051;28;20085;-54
2023/05/03 00:58:57;;;;;;;49.05;10.27;;;16.80;88.50;;;;;;4984894;28;20487;-55
2023/05/03 01:01:23;;;;;;;38.42;8.90;;;16.80;88.60;;;;;;4984414;28;20030;-55
2023/05/03 01:03:49;;;;;;;35.38;9.23;;;16.80;88.70;;;;;;5000847;28;20389;-55
2023/05/03 01:06:38;;;;;;;48.42;9.93;;;16.70;88.70;;;;;;4965645;29;20047;-54
2023/05/03 01:09:20;;;;;;;49.00;9.52;;;16.70;88.80;;;;;;4965450;29;20027;-55
2023/05/03 01:11:59;;;;;;;50.45;10.57;;;16.70;88.90;;;;;;4965736;29;20050;-54
2023/05/03 01:14:35;;;;;;;42.80;9.63;;;16.70;88.90;;;;;;4965052;29;20027;-54
2023/05/03 01:17:15;;;;;;;41.22;9.20;;;16.60;88.90;;;;;;4949326;29;20034;-54
2023/05/03 01:19:53;;;;;;;42.65;9.35;;;16.60;89.00;;;;;;4965375;29;20046;-55
2023/05/03 01:22:37;;;;;;;40.90;9.88;;;16.60;89.10;;;;;;4965298;29;20039;-55
2023/05/03 01:25:06;;;;;;;34.35;9.43;;;16.60;89.00;;;;;;4966658;28;20083;-54
2023/05/03 01:27:32;;;;;;;45.33;9.65;;;16.60;89.10;;;;;;4966330;29;20114;-55
2023/05/03 01:29:57;;;;;;;28.25;7.93;;;16.50;89.00;;;;;;4964894;29;20138;-54
2023/05/03 01:32:35;;;;;;;43.75;9.57;;;16.50;89.10;;;;;;4966494;29;20407;-54
2023/05/03 01:35:07;;;;;;;35.10;8.77;;;16.50;89.20;;;;;;4965208;29;20167;-54
2023/05/03 01:37:32;;;;;;;43.25;10.35;;;16.50;89.20;;;;;;4966307;29;20038;-53
2023/05/03 01:40:06;;;;;;;40.97;9.95;;;16.40;89.20;;;;;;4965477;29;20110;-54
2023/05/03 01:42:32;;;;;;;37.33;9.63;;;16.40;89.20;;;;;;4965325;29;20067;-55
2023/05/03 01:44:58;;;;;;;34.55;9.15;;;16.40;89.30;;;;;;4965210;28;20039;-54
2023/05/03 01:47:23;;;;;;;33.67;8.93;;;16.40;89.20;;;;;;4948898;29;20034;-55
2023/05/03 01:49:49;;;;;;;43.90;10.27;;;16.40;89.10;;;;;;4965059;29;20038;-55
2023/05/03 01:52:15;;;;;;;30.52;9.23;;;16.40;89.30;;;;;;4966333;29;20030;-55
2023/05/03 01:54:40;;;;;;;29.15;8.85;;;16.30;89.40;;;;;;4964957;29;20042;-55
2023/05/03 01:57:06;;;;;;;36.35;9.32;;;16.30;89.40;;;;;;4965114;29;20041;-54
2023/05/03 01:59:31;;;;;;;28.85;8.98;;;16.30;89.40;;;;;;4966378;29;20035;-55
2023/05/03 02:01:57;;;;;;;33.03;9.25;;;16.30;89.60;;;;;;4967509;28;20174;-55
2023/05/03 02:04:23;;;;;;;37.80;8.65;;;16.20;89.60;;;;;;4984239;28;20042;-55
2023/05/03 02:06:48;;;;;;;34.55;8.90;;;16.20;89.60;;;;;;5016731;28;20035;-54
2023/05/03 02:09:14;;;;;;;26.75;9.18;;;16.20;89.60;;;;;;4985498;28;20081;-55
2023/05/03 02:11:39;;;;;;;27.10;8.43;;;16.20;89.50;;;;;;5016673;28;20149;-55
2023/05/03 02:14:05;;;;;;;38.33;8.80;;;16.20;89.60;;;;;;4986603;28;20547;-54
2023/05/03 02:16:30;;;;;;;24.85;8.63;;;16.10;89.60;;;;;;4989178;28;20041;-54
2023/05/03 02:18:58;;;;;;;32.03;8.52;;;16.10;89.80;;;;;;4987955;28;20062;-55
2023/05/03 02:21:25;;;;;;;27.77;8.65;;;16.10;89.90;;;;;;4987864;28;20044;-54
2023/05/03 02:23:50;;;;;;;26.60;9.27;;;16.10;90.00;;;;;;4989187;28;20132;-55
2023/05/03 02:26:16;;;;;;;28.83;8.10;;;16.00;90.00;;;;;;4987648;28;20031;-54
2023/05/03 02:28:41;;;;;;;25.05;7.90;;;16.00;90.30;;;;;;4989367;28;20026;-55
2023/05/03 02:31:07;;;;;;;24.02;8.48;;;16.00;90.10;;;;;;4988037;28;20381;-55
2023/05/03 02:33:33;;;;;;;23.90;7.68;;;16.00;90.20;;;;;;4987440;28;20034;-55
2023/05/03 02:35:58;;;;;;;20.15;7.03;;;16.00;90.20;;;;;;4988679;28;20050;-54
2023/05/03 02:38:24;;;;;;;25.55;8.38;;;15.90;90.20;;;;;;4987411;28;20027;-55
2023/05/03 02:40:50;;;;;;;27.95;7.75;;;15.90;90.20;;;;;;4987442;28;20138;-55
2023/05/03 02:43:15;;;;;;;22.70;7.88;;;15.90;90.20;;;;;;4988745;28;20045;-55
2023/05/03 02:45:42;;;;;;;21.45;7.50;;;15.90;90.20;;;;;;4988536;28;20134;-55
2023/05/03 02:48:08;;;;;;;18.65;7.28;;;15.90;90.20;;;;;;4987156;28;20038;-55
2023/05/03 02:50:34;;;;;;;23.30;7.38;;;15.90;90.20;;;;;;5019598;28;20061;-54
2023/05/03 02:53:00;;;;;;;21.27;7.18;;;15.80;90.20;;;;;;4987126;28;20037;-55
2023/05/03 02:55:26;;;;;;;20.75;6.43;;;15.80;90.30;;;;;;4988536;28;20368;-55
2023/05/03 02:57:51;;;;;;;22.10;7.43;;;15.80;90.30;;;;;;4988512;28;20086;-55
2023/05/03 03:00:17;;;;;;;20.38;6.95;;;15.80;90.30;;;;;;4988350;28;20031;-55
2023/05/03 03:02:43;;;;;;;20.55;7.30;;;15.70;90.40;;;;;;4986904;28;20026;-55
2023/05/03 03:05:08;;;;;;;16.98;6.70;;;15.70;90.40;;;;;;4986928;28;20027;-55
2023/05/03 03:07:35;;;;;;;20.63;7.07;;;15.70;90.50;;;;;;4986876;28;20031;-55
2023/05/03 03:10:01;;;;;;;20.80;7.40;;;15.70;90.50;;;;;;4987145;28;20050;-55
2023/05/03 03:12:27;;;;;;;17.25;6.65;;;15.70;90.50;;;;;;4987027;28;20466;-55
2023/05/03 03:14:53;;;;;;;20.13;6.55;;;15.60;90.50;;;;;;4987969;28;20038;-55
2023/05/03 03:17:19;;;;;;;15.18;6.18;;;15.60;90.50;;;;;;4986451;28;20015;-55
2023/05/03 03:19:45;;;;;;;12.38;6.50;;;15.60;90.50;;;;;;4987845;28;20034;-55
2023/05/03 03:22:11;;;;;;;16.15;7.07;;;15.50;90.60;;;;;;4986562;28;20019;-55
2023/05/03 03:24:37;;;;;;;21.60;7.07;;;15.50;90.60;;;;;;4987529;28;20090;-55
2023/05/03 03:27:02;;;;;;;19.25;7.15;;;15.50;90.60;;;;;;4987926;28;20031;-55
2023/05/03 03:29:30;;;;;;;17.10;9.82;;;15.50;90.60;;;;;;4970387;28;20042;-55
2023/05/03 03:31:56;;;;;;;62.42;12.88;;;15.50;90.60;;;;;;4970579;28;20046;-55
2023/05/03 03:34:21;;;;;;;20.48;9.05;;;15.50;90.60;;;;;;4986268;28;20031;-54
2023/05/03 03:36:47;;;;;;;22.67;8.35;;;15.40;90.60;;;;;;4986331;28;20031;-55
2023/05/03 03:39:12;;;;;;;29.65;9.13;;;15.40;90.60;;;;;;4987851;28;20153;-54
2023/05/03 03:41:38;;;;;;;32.80;9.02;;;15.40;90.60;;;;;;4987553;28;20031;-54
2023/05/03 03:44:04;;;;;;;42.53;10.48;;;15.40;90.60;;;;;;4987715;28;20031;-55
2023/05/03 03:46:29;;;;;;;55.45;10.77;;;15.30;90.70;;;;;;4987513;28;20035;-55
2023/05/03 03:48:55;;;;;;;61.40;11.25;;;15.30;90.60;;;;;;4970143;28;20086;-55
2023/05/03 03:51:20;;;;;;;41.20;10.48;;;15.30;90.70;;;;;;4986209;28;20041;-54
2023/05/03 03:53:46;;;;;;;40.85;9.75;;;15.30;90.70;;;;;;4987576;28;20030;-55
2023/05/03 03:56:12;;;;;;;31.58;9.88;;;15.20;90.70;;;;;;4987493;28;20077;-54
2023/05/03 03:58:37;;;;;;;42.60;9.82;;;15.20;90.70;;;;;;4987463;28;20038;-55
2023/05/03 04:01:03;;;;;;;38.70;9.57;;;15.20;90.70;;;;;;4987338;28;20043;-55
2023/05/03 04:03:28;;;;;;;41.22;10.15;;;15.20;90.70;;;;;;4987431;28;20093;-55
2023/05/03 04:05:54;;;;;;;35.97;10.88;;;15.20;90.70;;;;;;4986179;28;20042;-55
2023/05/03 04:08:19;;;;;;;27.35;8.57;;;15.20;90.70;;;;;;4987364;28;20106;-55
2023/05/03 04:10:45;;;;;;;29.27;9.13;;;15.10;90.70;;;;;;4985801;28;20046;-55
2023/05/03 04:13:11;;;;;;;29.27;9.55;;;15.10;90.70;;;;;;4985561;28;20039;-55
2023/05/03 04:15:36;;;;;;;35.63;8.82;;;15.10;90.70;;;;;;4985660;28;20042;-55
2023/05/03 04:18:02;;;;;;;45.65;9.07;;;15.10;90.70;;;;;;4985794;28;20086;-55
2023/05/03 04:20:28;;;;;;;26.55;8.40;;;15.00;90.70;;;;;;4985495;28;20023;-55
2023/05/03 04:22:53;;;;;;;32.40;9.25;;;15.00;90.70;;;;;;4986836;28;20023;-54
2023/05/03 04:25:19;;;;;;;36.60;8.77;;;15.00;90.70;;;;;;4985764;28;20031;-55
2023/05/03 04:27:45;;;;;;;23.83;8.23;;;15.00;90.70;;;;;;4985284;28;20031;-55
2023/05/03 04:30:12;;;;;;;24.30;8.57;;;14.90;90.70;;;;;;4985601;28;20213;-55
2023/05/03 04:32:39;;;;;;;26.05;8.35;;;14.90;90.80;;;;;;5017653;28;20085;-55
2023/05/03 04:35:09;;;;;;;27.02;8.98;;;14.90;90.90;;;;;;4984856;28;20113;-55
2023/05/03 04:37:36;;;;;;;22.52;8.15;;;14.90;90.90;;;;;;4985122;28;20043;-54
2023/05/03 04:40:06;;;;;;;31.52;8.55;;;14.90;90.90;;;;;;4986567;28;20375;-55
2023/05/03 04:42:31;;;;;;;20.10;7.85;;;14.90;90.90;;;;;;4985176;28;20464;-55
2023/05/03 04:44:57;;;;;;;19.90;8.82;;;14.90;90.80;;;;;;4986408;28;20037;-55
2023/05/03 04:47:24;;;;;;;19.30;8.43;;;14.90;90.80;;;;;;5001124;28;20054;-54
2023/05/03 04:49:50;;;;;;;21.80;8.68;;;14.90;90.80;;;;;;4985158;28;20459;-55
2023/05/03 04:52:15;;;;;;;16.73;8.00;;;14.80;90.80;;;;;;5017408;28;20035;-55
2023/05/03 04:54:41;;;;;;;29.50;7.88;;;14.80;90.90;;;;;;4985100;28;20194;-54
2023/05/03 04:57:09;;;;;;;21.58;7.95;;;14.80;90.90;;;;;;4986243;28;20495;-55
2023/05/03 04:59:34;;;;;;;18.75;8.13;;;14.80;90.90;;;;;;4986341;28;20062;-55
2023/05/03 05:02:00;;;;;;;16.33;7.47;;;14.80;90.90;;;;;;4986104;28;20026;-54
2023/05/03 05:04:25;;;;;;;15.80;8.27;;;14.70;90.90;;;;;;4984887;28;20030;-55
2023/05/03 05:06:52;;;;;;;17.60;7.80;;;14.70;90.90;;;;;;4984813;28;20109;-55
2023/05/03 05:09:25;;;;;;;18.70;8.73;;;14.80;90.90;;;;;;4984666;28;20027;-55
2023/05/03 05:11:51;;;;;;;19.75;8.07;;;14.70;90.90;;;;;;4968905;28;20035;-54
2023/05/03 05:14:16;;;;;;;22.60;8.20;;;14.70;91.00;;;;;;4968331;28;20030;-55
2023/05/03 05:16:42;;;;;;;20.83;7.72;;;14.70;91.00;;;;;;4984569;28;20542;-54
2023/05/03 05:19:07;;;;;;;19.77;7.40;;;14.70;91.00;;;;;;4986080;28;20031;-55
2023/05/03 05:21:33;;;;;;;18.90;7.22;;;14.70;90.90;;;;;;4984725;28;20362;-55
2023/05/03 05:23:59;;;;;;;21.52;7.50;;;14.60;90.90;;;;;;4984594;28;20027;-55
2023/05/03 05:26:26;;;;;;;22.25;7.10;;;14.60;90.90;;;;;;4984560;28;20419;-54
2023/05/03 05:28:52;;;;;;;17.48;7.32;;;14.60;90.90;;;;;;4984535;28;20055;-55
2023/05/03 05:31:17;;;;;;;14.60;7.63;;;14.60;90.90;;;;;;4968306;28;20365;-54
2023/05/03 05:33:43;;;;;;;18.45;7.47;;;14.60;90.90;;;;;;4984354;28;20099;-54
2023/05/03 05:36:09;;;;;;;15.13;6.85;;;14.60;91.00;;;;;;4968485;28;20038;-55
2023/05/03 05:38:35;;;;;;;24.40;7.65;;;14.60;91.00;;;;;;4984434;28;20043;-54
2023/05/03 05:41:01;;;;;;;17.50;6.82;;;14.60;91.00;;;;;;4984495;28;20118;-55
2023/05/03 05:43:26;;;;;;;17.08;6.97;;;14.50;90.90;;;;;;4985553;28;20023;-54
2023/05/03 05:45:52;;;;;;;16.48;7.15;;;14.50;90.90;;;;;;4985748;28;20049;-54
2023/05/03 05:48:17;;;;;;;11.98;6.20;;;14.50;90.90;;;;;;4987833;28;20031;-54
2023/05/03 05:50:43;;;;;;;13.20;6.57;;;14.50;90.90;;;;;;4988491;28;20033;-55
2023/05/03 05:53:09;;;;;;;12.45;6.40;;;14.50;90.90;;;;;;4988082;28;20130;-54
2023/05/03 05:55:34;;;;;;;17.58;7.22;;;14.50;90.90;;;;;;4989384;28;20042;-55
2023/05/03 05:58:00;;;;;;;9.90;6.38;;;14.50;90.90;;;;;;4987972;28;20051;-55
2023/05/03 06:00:26;;;;;;;14.00;6.32;;;14.50;91.00;;;;;;4988186;28;20030;-55
2023/05/03 06:02:51;;;;;;;12.07;6.32;;;14.50;90.90;;;;;;4987903;28;20144;-55
2023/05/03 06:05:17;;;;;;;13.40;6.60;;;14.50;90.90;;;;;;4987856;28;20039;-55
2023/05/03 06:07:42;;;;;;;16.13;6.30;;;14.50;90.90;;;;;;4987701;28;20066;-54
2023/05/03 06:10:08;;;;;;;20.73;7.07;;;14.50;90.90;;;;;;4989171;28;20059;-55
2023/05/03 06:12:35;;;;;;;11.00;6.72;;;14.50;90.90;;;;;;4987624;28;20030;-55
2023/05/03 06:15:01;;;;;;;12.68;6.18;;;14.50;90.90;;;;;;4987898;28;20038;-55
2023/05/03 06:17:27;;;;;;;12.38;6.22;;;14.40;90.90;;;;;;4988996;28;20082;-55
2023/05/03 06:19:52;;;;;;;9.60;6.80;;;14.50;90.90;;;;;;4989068;28;20041;-54
2023/05/03 06:22:18;;;;;;;12.07;6.50;;;14.50;91.30;;;;;;4987793;28;20026;-55
2023/05/03 06:24:43;;;;;;;9.88;6.82;;;14.50;90.90;;;;;;4987496;28;20084;-55
2023/05/03 06:27:09;;;;;;;8.00;6.55;;;14.50;90.90;;;;;;4985555;28;20056;-55
2023/05/03 06:29:35;;;;;;;15.85;7.03;;;14.50;90.80;;;;;;4970524;28;20049;-55
2023/05/03 06:32:00;;;;;;;7.82;6.10;;;14.50;90.80;;;;;;4986826;28;20031;-55
2023/05/03 06:34:26;;;;;;;13.95;6.93;;;14.50;90.80;;;;;;4971058;28;20030;-55
2023/05/03 06:36:52;;;;;;;8.73;6.60;;;14.50;90.80;;;;;;4987148;28;20078;-55
2023/05/03 06:39:17;;;;;;;13.30;6.18;;;14.50;90.70;;;;;;4988665;28;20030;-55
2023/05/03 06:41:43;;;;;;;11.77;6.82;;;14.60;90.80;;;;;;4988318;28;20030;-55
2023/05/03 06:44:09;;;;;;;14.07;6.45;;;14.50;90.80;;;;;;4971057;28;20451;-55
2023/05/03 06:46:34;;;;;;;15.57;6.60;;;14.60;90.80;;;;;;4970923;28;20038;-55
2023/05/03 06:49:00;;;;;;;10.38;6.68;;;14.50;90.70;;;;;;4988287;28;20027;-54
2023/05/03 06:51:28;;;;;;;10.48;6.20;;;14.60;90.80;;;;;;4987883;28;20098;-55
2023/05/03 06:53:55;;;;;;;22.38;6.95;;;14.60;90.80;;;;;;4970997;28;20077;-55
2023/05/03 06:56:20;;;;;;;12.32;7.38;;;14.50;90.80;;;;;;4970966;28;20118;-55
2023/05/03 06:58:46;;;;;;;16.38;7.35;;;14.60;90.70;;;;;;5002105;28;20022;-55
2023/05/03 07:01:12;;;;;;;11.45;7.07;;;14.60;91.00;;;;;;4986759;28;20033;-54
2023/05/03 07:03:37;;;;;;;14.77;7.57;;;14.60;90.70;;;;;;4986175;28;20058;-55
2023/05/03 07:06:03;;;;;;;12.00;7.68;;;14.60;90.70;;;;;;4988064;28;20049;-55
2023/05/03 07:08:29;;;;;;;16.08;7.15;;;14.60;90.60;;;;;;4986272;28;20023;-55
2023/05/03 07:10:55;;;;;;;16.15;6.85;;;14.60;90.60;;;;;;4988043;28;20034;-55
2023/05/03 07:13:20;;;;;;;13.63;7.55;;;14.70;90.60;;;;;;4985763;28;20097;-55
2023/05/03 07:15:46;;;;;;;11.00;7.28;;;14.70;90.50;;;;;;4986467;28;20091;-54
2023/05/03 07:18:11;;;;;;;8.77;6.60;;;14.70;90.50;;;;;;4986278;28;20107;-55
2023/05/03 07:20:37;;;;;;;13.25;7.32;;;14.70;90.50;;;;;;4986610;28;20051;-55
2023/05/03 07:23:03;;;;;;;12.48;6.85;;;14.70;90.40;;;;;;4985948;28;20038;-55
2023/05/03 07:25:28;;;;;;;12.60;6.75;;;14.70;90.40;;;;;;4986461;28;20026;-55
2023/05/03 07:27:54;;;;;;;11.73;6.30;;;14.70;90.30;;;;;;4986200;28;20031;-55
2023/05/03 07:30:21;;;;;;;10.98;6.18;;;14.80;90.30;;;;;;4984744;28;20046;-55
2023/05/03 07:32:46;;;;;;;19.92;7.03;;;14.80;90.30;;;;;;4976546;28;20053;-55
2023/05/03 07:35:12;;;;;;;13.10;7.13;;;14.70;90.30;;;;;;4979776;28;20038;-55
2023/05/03 07:37:37;;;;;;;11.15;6.57;;;14.80;90.40;;;;;;4978470;28;20035;-55
2023/05/03 07:40:05;;;;;;;15.05;6.57;;;14.80;90.30;;;;;;4987442;28;20146;-55
2023/05/03 07:42:31;;;;;;;9.90;6.55;;;14.80;90.20;;;;;;4985794;28;20023;-54
2023/05/03 07:44:59;;;;;;;19.08;6.50;;;14.80;90.20;;;;;;4985545;28;20034;-55
2023/05/03 07:47:25;;;;;;;11.98;7.22;;;14.90;90.20;;;;;;4970252;28;20097;-55
2023/05/03 07:49:50;;;;;;;12.82;5.80;;;14.90;90.10;;;;;;4987235;28;20039;-55
2023/05/03 07:52:16;;;;;;;14.90;6.40;;;14.90;90.00;;;;;;4986778;28;20158;-55
2023/05/03 07:54:44;;;;;;;12.13;6.47;;;14.90;90.00;;;;;;4969405;28;20086;-55
2023/05/03 07:57:13;;;;;;;24.55;6.97;;;14.90;90.00;;;;;;4985605;28;20459;-55
2023/05/03 07:59:38;;;;;;;13.30;6.28;;;14.90;90.00;;;;;;4985298;28;20089;-54
2023/05/03 08:02:04;;;;;;;15.45;6.10;;;15.00;90.00;;;;;;4985315;28;20031;-55
2023/05/03 08:04:30;;;;;;;17.77;7.15;;;15.00;90.00;;;;;;4985089;28;20077;-55
2023/05/03 08:06:55;;;;;;;25.17;7.05;;;15.00;89.80;;;;;;4985000;28;20093;-55
2023/05/03 08:09:22;;;;;;;28.52;8.25;;;15.00;89.70;;;;;;4986372;28;20031;-55
2023/05/03 08:11:47;;;;;;;19.35;7.57;;;15.00;89.60;;;;;;4968867;28;20038;-55
2023/05/03 08:14:13;;;;;;;25.85;7.40;;;15.10;89.60;;;;;;4984582;28;20038;-55
2023/05/03 08:16:38;;;;;;;23.77;8.05;;;15.10;89.70;;;;;;4986513;28;20406;-54
2023/05/03 08:19:04;;;;;;;35.38;8.35;;;15.10;89.60;;;;;;4984645;28;20077;-55
2023/05/03 08:21:30;;;;;;;31.42;8.68;;;15.10;89.80;;;;;;4984802;28;20031;-55
2023/05/03 08:23:55;;;;;;;31.15;6.95;;;15.10;89.70;;;;;;4986145;28;20061;-55
2023/05/03 08:26:21;;;;;;;45.67;9.88;;;15.10;89.70;;;;;;4952506;28;20470;-54
2023/05/03 08:28:46;;;;;;;40.67;8.98;;;15.20;89.80;;;;;;4968769;28;20026;-55
2023/05/03 08:31:12;;;;;;;33.25;8.00;;;15.10;89.50;;;;;;4984151;28;20479;-55
2023/05/03 08:33:38;;;;;;;34.05;8.77;;;15.20;89.50;;;;;;4968316;28;20027;-55
2023/05/03 08:36:04;;;;;;;36.40;8.57;;;15.20;89.60;;;;;;4984363;28;20049;-55
2023/05/03 08:38:31;;;;;;;49.53;10.07;;;15.20;89.50;;;;;;4985782;28;20070;-55
2023/05/03 08:40:57;;;;;;;47.67;9.90;;;15.20;89.50;;;;;;4985342;28;20046;-55
2023/05/03 08:43:23;;;;;;;38.40;10.25;;;15.20;89.60;;;;;;4984296;28;20048;-55
2023/05/03 08:45:48;;;;;;;31.85;8.40;;;15.30;89.50;;;;;;4968086;28;20058;-55
2023/05/03 08:48:14;;;;;;;50.15;10.43;;;15.30;89.30;;;;;;4968173;28;20042;-55
2023/05/03 08:50:43;;;;;;;75.05;11.25;;;15.30;89.50;;;;;;4983920;28;20031;-55
2023/05/03 08:53:09;;;;;;;67.00;11.52;;;15.30;89.50;;;;;;4984397;28;20035;-54
2023/05/03 08:55:36;;;;;;;56.75;10.60;;;15.30;89.60;;;;;;4985185;28;20037;-55
2023/05/03 08:58:09;;;;;;;56.17;11.50;;;15.30;89.60;;;;;;4965093;28;20066;-55
2023/05/03 09:00:34;;;;;;;61.30;12.45;;;15.40;89.50;;;;;;4968820;28;20058;-54
2023/05/03 09:03:00;;;;;;;92.63;14.73;;;15.40;89.60;;;;;;4984419;28;20027;-55
2023/05/03 09:05:29;;;;;;;96.88;15.38;;;15.40;89.80;;;;;;4982179;28;20035;-55
2023/05/03 09:08:08;;;;;;;68.38;11.25;;;15.40;89.70;;;;;;4984247;28;20050;-55
2023/05/03 09:10:38;;;;;;;57.15;11.57;;;15.40;89.20;;;;;;4984843;28;20053;-55
2023/05/03 09:13:05;;;;;;;102.97;14.32;;;15.50;89.10;;;;;;4968354;28;20090;-55
2023/05/03 09:15:31;;;;;;;75.95;12.38;;;15.50;89.00;;;;;;4968395;28;20089;-55
2023/05/03 09:18:16;;;;;;;108.40;15.25;;;15.50;89.20;;;;;;4985863;28;20027;-53
2023/05/03 09:20:44;;;;;;;76.70;12.80;;;15.60;90.00;;;;;;4985958;28;20110;-54
2023/05/03 09:23:10;;;;;;;111.00;15.15;;;15.70;89.50;;;;;;4985062;28;20039;-54
2023/05/03 09:25:43;;;;;;;111.63;15.85;;;15.70;89.20;;;;;;4984421;28;20064;-55
2023/05/03 09:28:08;;;;;;;102.40;15.63;;;15.70;89.50;;;;;;4985495;28;20045;-55
2023/05/03 09:30:34;;;;;;;138.45;18.73;;;15.80;90.00;;;;;;4984258;28;20034;-54
2023/05/03 09:33:00;;;;;;;105.25;16.92;;;15.80;89.60;;;;;;4985345;28;20056;-55
2023/05/03 09:35:25;;;;;;;101.53;14.43;;;15.80;89.20;;;;;;4983972;28;20031;-55
2023/05/03 09:37:51;;;;;;;107.82;17.35;;;15.90;88.90;;;;;;4983923;28;20059;-54
2023/05/03 09:40:17;;;;;;;157.38;22.08;;;15.90;89.00;;;;;;4984134;28;20054;-54
2023/05/03 09:43:13;;;;;;;116.75;17.65;;;15.90;89.50;;;;;;4968303;28;20023;-54
2023/05/03 09:45:38;;;;;;;169.30;21.93;;;15.90;89.10;;;;;;4985499;28;20050;-55
2023/05/03 09:48:05;;;;;;;121.78;16.60;;;16.00;89.60;;;;;;4967967;28;20031;-55
2023/05/03 09:50:32;;;;;;;123.38;16.30;;;16.00;89.20;;;;;;4985568;28;20166;-55
2023/05/03 09:53:04;;;;;;;143.23;20.73;;;16.00;89.20;;;;;;4967999;28;20090;-55
2023/05/03 09:55:37;;;;;;;173.18;21.70;;;16.00;89.60;;;;;;4952112;28;20065;-55
2023/05/03 09:58:06;;;;;;;125.97;18.75;;;16.00;89.80;;;;;;4985223;28;20069;-54
2023/05/03 10:00:36;;;;;;;133.60;19.10;;;16.00;89.80;;;;;;4984181;28;20256;-55
2023/05/03 10:03:02;;;;;;;132.35;17.42;;;16.10;89.20;;;;;;4983823;28;20062;-55
2023/05/03 10:05:30;;;;;;;174.23;23.45;;;16.10;88.90;;;;;;4983680;28;20027;-55
2023/05/03 10:07:56;;;;;;;172.35;23.83;;;16.10;89.20;;;;;;4964929;28;20097;-55
2023/05/03 10:10:21;;;;;;;107.95;16.95;;;16.10;89.20;;;;;;4983884;28;20038;-54
2023/05/03 10:12:47;;;;;;;108.43;17.05;;;16.10;89.00;;;;;;4983744;28;20388;-55
2023/05/03 10:15:13;;;;;;;119.68;20.05;;;16.10;88.70;;;;;;4982968;28;20411;-55
2023/05/03 10:17:38;;;;;;;175.60;22.80;;;16.10;89.30;;;;;;4983827;28;20029;-55
2023/05/03 10:20:16;;;;;;;194.60;21.63;;;16.10;89.30;;;;;;4983735;28;20022;-55
2023/05/03 10:23:04;;;;;;;184.43;24.00;;;16.10;89.50;;;;;;4985056;28;20037;-54
2023/05/03 10:25:30;;;;;;;155.75;19.58;;;16.20;89.60;;;;;;4984936;28;20035;-55
2023/05/03 10:28:03;;;;;;;124.72;17.90;;;16.20;89.70;;;;;;4971954;28;20055;-54
2023/05/03 10:30:33;;;;;;;144.35;20.80;;;16.20;89.80;;;;;;4981624;28;20043;-55
2023/05/03 10:33:20;;;;;;;135.90;18.05;;;16.20;89.60;;;;;;4983624;28;20027;-55
2023/05/03 10:35:53;;;;;;;115.35;16.98;;;16.20;89.70;;;;;;4982850;28;20114;-55
2023/05/03 10:38:28;;;;;;;142.13;16.83;;;16.30;89.60;;;;;;4987059;28;20031;-55
2023/05/03 10:40:54;;;;;;;120.07;18.37;;;16.20;89.50;;;;;;4982934;28;20058;-55
2023/05/03 10:43:32;;;;;;;86.15;14.38;;;16.20;89.50;;;;;;4975438;28;20287;-55
2023/05/03 10:46:01;;;;;;;75.97;13.18;;;16.30;89.20;;;;;;4982726;28;20065;-55
2023/05/03 10:48:27;;;;;;;107.45;14.43;;;16.30;89.00;;;;;;4985351;28;20133;-55
2023/05/03 10:50:53;;;;;;;96.68;13.82;;;16.40;89.00;;;;;;4974310;28;20040;-55
2023/05/03 10:53:39;;;;;;;103.90;14.02;;;16.40;89.10;;;;;;4964509;28;20031;-55
2023/05/03 10:56:11;;;;;;;141.07;18.45;;;16.40;88.80;;;;;;4972208;28;20059;-55
2023/05/03 10:58:47;;;;;;;153.23;20.15;;;16.50;89.50;;;;;;4987736;28;20046;-55
2023/05/03 11:01:17;;;;;;;94.28;14.60;;;16.60;89.30;;;;;;4983424;28;20030;-55
2023/05/03 11:03:54;;;;;;;112.20;15.90;;;16.60;89.10;;;;;;4982930;28;20093;-55
2023/05/03 11:06:31;;;;;;;128.93;17.13;;;16.60;88.60;;;;;;4987613;28;20105;-55
2023/05/03 11:08:57;;;;;;;145.80;17.20;;;16.70;88.90;;;;;;4985604;28;20137;-55
2023/05/03 11:11:22;;;;;;;112.30;15.32;;;16.70;88.70;;;;;;4986368;28;20126;-55
2023/05/03 11:13:51;;;;;;;99.97;14.63;;;16.80;88.20;;;;;;4986075;28;20438;-55
2023/05/03 11:16:17;;;;;;;98.80;13.00;;;16.80;87.90;;;;;;4986124;28;20046;-55
2023/05/03 11:18:43;;;;;;;81.35;13.35;;;16.90;86.80;;;;;;4985950;28;20027;-55
2023/05/03 11:21:10;;;;;;;84.03;13.27;;;17.00;85.80;;;;;;4986318;28;20043;-54
2023/05/03 11:23:37;;;;;;;104.55;13.20;;;17.00;85.70;;;;;;4974969;28;20027;-54
2023/05/03 11:26:05;;;;;;;75.97;10.63;;;17.00;85.20;;;;;;4973253;28;20043;-55
2023/05/03 11:28:30;;;;;;;73.28;10.50;;;17.10;84.80;;;;;;4989241;28;20158;-55
2023/05/03 11:30:56;;;;;;;86.05;12.18;;;17.20;84.60;;;;;;4987436;28;20023;-55
2023/05/03 11:33:22;;;;;;;75.22;11.50;;;17.20;84.20;;;;;;4987372;28;20051;-54
2023/05/03 11:35:47;;;;;;;69.55;11.40;;;17.30;83.90;;;;;;4984731;28;20030;-55
2023/05/03 11:38:13;;;;;;;78.93;11.40;;;17.30;84.10;;;;;;4984511;28;20022;-55
2023/05/03 11:40:39;;;;;;;79.85;12.15;;;17.40;83.80;;;;;;4972795;28;20023;-55
2023/05/03 11:43:06;;;;;;;58.00;9.35;;;17.50;83.80;;;;;;4977655;28;20130;-55
2023/05/03 11:45:42;;;;;;;50.63;8.65;;;17.50;83.50;;;;;;4982391;28;20106;-55
2023/05/03 11:48:08;;;;;;;79.15;10.45;;;17.60;83.10;;;;;;4975701;28;20467;-55
2023/05/03 11:50:54;;;;;;;61.35;9.60;;;17.60;83.10;;;;;;4983795;28;20054;-54
2023/05/03 11:53:23;;;;;;;65.80;10.07;;;17.60;83.00;;;;;;4986238;28;20033;-55
2023/05/03 11:55:53;;;;;;;51.75;9.70;;;17.70;83.20;;;;;;4985376;28;20053;-55
2023/05/03 11:58:26;;;;;;;58.78;9.52;;;17.70;83.00;;;;;;4984559;28;20034;-55
2023/05/03 12:00:55;;;;;;;54.65;9.27;;;17.80;82.80;;;;;;4966309;28;20129;-54
2023/05/03 12:03:22;;;;;;;58.08;9.02;;;17.80;82.50;;;;;;4985002;28;20082;-55
2023/05/03 12:05:48;;;;;;;57.72;8.63;;;17.90;82.50;;;;;;4984355;28;20042;-55
2023/05/03 12:08:18;;;;;;;56.60;9.25;;;18.00;82.30;;;;;;5017232;28;20049;-54
2023/05/03 12:10:44;;;;;;;50.85;8.75;;;18.00;82.00;;;;;;4984635;28;20444;-54
2023/05/03 12:13:10;;;;;;;53.38;8.10;;;18.10;81.70;;;;;;4984859;28;20046;-54
2023/05/03 12:15:36;;;;;;;46.80;7.32;;;18.20;81.40;;;;;;4985287;28;20210;-55
2023/05/03 12:18:07;;;;;;;45.97;7.30;;;18.30;80.70;;;;;;4988607;28;20092;-55
2023/05/03 12:20:33;;;;;;;48.65;6.93;;;18.40;80.40;;;;;;4996014;28;20031;-54
2023/05/03 12:23:01;;;;;;;42.45;7.03;;;18.40;80.30;;;;;;4995816;28;20063;-56
2023/05/03 12:25:27;;;;;;;52.70;6.55;;;18.40;80.30;;;;;;4989583;28;20050;-55
2023/05/03 12:27:53;;;;;;;43.90;7.32;;;18.40;80.30;;;;;;4969005;28;20034;-55
2023/05/03 12:30:20;;;;;;;50.88;7.97;;;18.40;80.10;;;;;;4984981;28;20459;-55
2023/05/03 12:32:45;;;;;;;42.88;6.10;;;18.50;80.00;;;;;;5016224;28;20031;-55